Orto / Ocaso: 07:26 / 17:27 UTC (Datos para LEAX 19-01-2020)

[fuente: ADDS]

METAR:


LEMG 182300Z 29005KT 9999 FEW020 SCT050 11/10 Q1023 NOSIG =
TAF LEMG 182300Z 1900/1924 30014KT 9999 FEW025 SCT050 TX16/1914Z TN09/1906Z PROB40 TEMPO 1903/1921 30016G26KT LEGR 182300Z AUTO VRB02KT 0400 R09/1000N -RA FG VV001 09/09 Q1023 RERA =
TAF LEGR 182000Z 1821/1921 VRB02KT 9999 SCT020 BKN035 TX10/1915Z TN04/1907Z PROB40 TEMPO 1821/1906 4000 -RA BR BKN012 PROB30 TEMPO 1822/1903 27010KT BKN005 BECMG 1907/1910 36010KT BECMG 1916/1918 VRB03KT LEZL 182300Z 27011KT 9999 FEW015 14/12 Q1025 NOSIG =
TAF LEZL 182000Z 1821/1921 27007KT 9999 FEW025 TX16/1915Z TN07/1906Z PROB40 TEMPO 1821/1824 4000 BR OVC004 BECMG 1908/1911 02012KT LEAM 182300Z AUTO VRB01KT CAVOK 11/08 Q1021 =
TAF LEAM 182000Z 1821/1921 24010KT 9999 SCT020 SCT060 TX17/1913Z TN10/1906Z BECMG 1823/1902 VRB03KT BECMG 1905/1907 34018KT TEMPO 1906/1909 34022G32KT BECMG 1912/1915 30008KT PROB30 TEMPO 1912/1915 4000 RA LEBA 182300Z AUTO 30004KT 0200 R21/0175N FG VV002 11/11 Q1024 =
TAF AMD LEBA 181443Z 1815/1824 27004KT 9999 SCT010 BKN020 TEMPO 1815/1824 2500 -RA BR BKN012 PROB40 TEMPO 1815/1824 BKN005 LEJR 182330Z AUTO 31018G30KT 270V340 9999 -RA BKN007 OVC014 15/13 Q1025 =
TAF LEJR 182300Z 1900/1924 30011KT 9999 SCT010 BKN014 TX16/1914Z TN08/1906Z BECMG 1900/1902 SCT015 SCT030 BECMG 1911/1914 02014KT PROB30 TEMPO 1920/1924 03016G26KT GEML 182300Z AUTO 26006KT 220V290 CAVOK 18/04 Q1025 =
TAF GEML 182000Z 1821/1921 26009KT 9999 SCT020 SCT035 TX17/1914Z TN12/1907Z BECMG 1904/1907 28022KT TEMPO 1901/1908 4000 RA PROB40 TEMPO 1906/1915 28025G35KT BECMG 1916/1919 28010KT LXGB 182250Z AUTO 23014KT 9999 // BKN014/// SCT025/// 17/16 Q1025 =
TAF LXGB 181348Z 1815/1823 23005KT 9999 FEW012 SCT045 TEMPO 1815/1823 BKN020 PROB40 TEMPO 1815/1821 23015G25KT 520001 PROB30 TEMPO 1815/1823 7000 RA SCT010

TAFOR:


TAF LEMG 182300Z 1900/1924 30014KT 9999 FEW025 SCT050 TX16/1914Z TN09/1906Z PROB40 TEMPO 1903/1921 30016G26KT =
TAF LEGR 182000Z 1821/1921 VRB02KT 9999 SCT020 BKN035 TX10/1915Z TN04/1907Z PROB40 TEMPO 1821/1906 4000 -RA BR BKN012 PROB30 TEMPO 1822/1903 27010KT BKN005 BECMG 1907/1910 36010KT BECMG 1916/1918 VRB03KT =
TAF LEZL 182000Z 1821/1921 27007KT 9999 FEW025 TX16/1915Z TN07/1906Z PROB40 TEMPO 1821/1824 4000 BR OVC004 BECMG 1908/1911 02012KT =
TAF LEAM 182000Z 1821/1921 24010KT 9999 SCT020 SCT060 TX17/1913Z TN10/1906Z BECMG 1823/1902 VRB03KT BECMG 1905/1907 34018KT TEMPO 1906/1909 34022G32KT BECMG 1912/1915 30008KT PROB30 TEMPO 1912/1915 4000 RA =
TAF AMD LEBA 181443Z 1815/1824 27004KT 9999 SCT010 BKN020 TEMPO 1815/1824 2500 -RA BR BKN012 PROB40 TEMPO 1815/1824 BKN005 =
TAF LEJR 182300Z 1900/1924 30011KT 9999 SCT010 BKN014 TX16/1914Z TN08/1906Z BECMG 1900/1902 SCT015 SCT030 BECMG 1911/1914 02014KT PROB30 TEMPO 1920/1924 03016G26KT =
TAF GEML 182000Z 1821/1921 26009KT 9999 SCT020 SCT035 TX17/1914Z TN12/1907Z BECMG 1904/1907 28022KT TEMPO 1901/1908 4000 RA PROB40 TEMPO 1906/1915 28025G35KT BECMG 1916/1919 28010KT =
TAF LXGB 181348Z 1815/1823 23005KT 9999 FEW012 SCT045 TEMPO 1815/1823 BKN020 PROB40 TEMPO 1815/1821 23015G25KT 520001 PROB30 TEMPO 1815/1823 7000 RA SCT010 =

Recuerde que, aunque regularmente actualizada, la información meteorológica aquí presentada no debe ser utilizada para la planificación de vuelos. Si lo desea, puede consultar la información meteorológica adecuada, tanto de aeródromos como en ruta, por las vías oficialmente establecidas en la legislación -> AQUí

Utilizamos "cookies" propias y de terceros para analizar nuestros servicios, medir las audiencias, personalizar el contenido que ofrecemos y mostrar información adaptada a sus intereses mediante la obtención de los datos necesarios para perfilar sus hábitos de navegación e inferir grupos de interés, siempre de modo anónimo. Si continúa utilizando el sitio web AEROCLUBMALAGA.COM, significa que acepta sus términos y condiciones y el uso de "cookies" al utilizar el sitio web y nuestros servicios. Asimismo, podemos utilizar fuentes de datos externas para elaborar estos grupos de interés, así compartir los análisis de navegación y los grupos de interés inferidos con terceros con el objetivo de personalizar los contenidos. Para obtener más información sobre las cookies que utilizamos y cómo eliminarlas, consulte nuestra política de privacidad.

Acepto las cookies de esta página web.
EU Cookie Directive plugin by www.channeldigital.co.uk